MA91 weather

Compaq Parker Street Heliport
Maynard, Massachusetts, United States

Public forecast

Using degrees Fahrenheit for public forecast. Weather courtesy of forecast.io.

Closest aviation weather report (METAR) to Compaq Parker Street Heliport

Closest report is Laurence G Hanscom Field, 7.7 nm (14.2 km) ENE. Retrieved 2020/01/17 17:51 UTC (26 minutes ago):

KBED 171751Z 32017KT 10SM CLR M06/M23 A3050 RMK AO2 SLP346 T10561233 11056 21100 58003

Closest aviation forecast (TAF) to Compaq Parker Street Heliport

Closest forecast is Laurence G Hanscom Field, 7.7 nm (14.2 km) ENE. Retrieved 2020/01/17 18:22 UTC (0 seconds ago):

TAF KBED 171720Z 1718/1818 32014G25KT P6SM SKC FM172200 31011G20KT P6SM SKC FM180000 32009KT P6SM SKC FM181000 30003KT P6SM SCT200 FM181100 00000KT P6SM BKN200 FM181700 18003KT P6SM OVC090